Time;durP1;ratioP1;P1;durP2;ratioP2;P2;SDS_P1;SDS_P2;PMS_P1;PMS_P2;Temp;Humidity;BMP_temperature;BMP_pressure;BME280_temperature;BME280_humidity;BME280_pressure;Samples;Min_cycle;Max_cycle;Signal;HPM_P1;HPM_P2
2022/06/07 00:00:35;;;;;;;12.38;5.63;;;;;;;;;;5048299;28;20543;-77
2022/06/07 00:03:02;;;;;;;9.77;5.22;;;;;;;;;;5048357;28;20514;-77
2022/06/07 00:05:28;;;;;;;13.43;5.18;;;;;;;;;;5045745;28;20092;-77
2022/06/07 00:07:54;;;;;;;14.05;5.80;;;;;;;;;;5047919;28;20027;-77
2022/06/07 00:10:24;;;;;;;10.80;5.03;;;;;;;;;;5046030;28;20092;-78
2022/06/07 00:12:50;;;;;;;11.52;5.07;;;;;;;;;;5047472;28;20041;-79
2022/06/07 00:15:17;;;;;;;8.95;4.20;;;;;;;;;;5047314;28;20053;-78
2022/06/07 00:17:43;;;;;;;12.95;4.72;;;;;;;;;;5046797;28;20040;-78
2022/06/07 00:20:10;;;;;;;8.38;3.92;;;;;;;;;;5045010;28;20025;-77
2022/06/07 00:22:36;;;;;;;11.70;4.28;;;;;;;;;;5049537;28;20024;-78
2022/06/07 00:25:03;;;;;;;10.55;4.22;;;;;;;;;;5049408;28;20091;-78
2022/06/07 00:27:29;;;;;;;10.20;4.38;;;;;;;;;;5046820;28;20040;-77
2022/06/07 00:29:56;;;;;;;10.32;4.38;;;;;;;;;;5045336;28;20027;-77
2022/06/07 00:32:23;;;;;;;9.48;4.20;;;;;;;;;;5046620;28;20020;-78
2022/06/07 00:34:49;;;;;;;14.80;4.15;;;;;;;;;;5047832;28;20439;-77
2022/06/07 00:37:15;;;;;;;8.70;4.18;;;;;;;;;;5052189;28;20549;-77
2022/06/07 00:39:41;;;;;;;9.15;4.05;;;;;;;;;;5065895;28;20039;-77
2022/06/07 00:42:08;;;;;;;8.02;4.38;;;;;;;;;;5049244;28;20029;-77
2022/06/07 00:44:36;;;;;;;13.18;4.85;;;;;;;;;;5046836;28;20907;-77
2022/06/07 00:47:09;;;;;;;9.40;4.53;;;;;;;;;;5047506;28;20481;-77
2022/06/07 00:49:55;;;;;;;10.02;5.55;;;;;;;;;;5066557;28;20464;-78
2022/06/07 00:52:22;;;;;;;12.00;4.30;;;;;;;;;;5050561;28;20408;-77
2022/06/07 00:54:49;;;;;;;9.27;4.78;;;;;;;;;;5066620;28;20032;-77
2022/06/07 00:57:15;;;;;;;9.30;4.55;;;;;;;;;;5064235;28;20620;-77
2022/06/07 00:59:41;;;;;;;9.07;4.55;;;;;;;;;;5054371;28;20182;-78
2022/06/07 01:02:08;;;;;;;11.60;4.72;;;;;;;;;;5063002;28;20047;-77
2022/06/07 01:04:34;;;;;;;10.50;4.68;;;;;;;;;;5066627;28;20016;-77
2022/06/07 01:12:32;;;;;;;12.23;5.75;;;;;;;;;;5066151;28;20039;-78
2022/06/07 01:14:58;;;;;;;13.48;5.78;;;;;;;;;;5064678;28;20044;-78
2022/06/07 01:17:25;;;;;;;17.40;6.57;;;;;;;;;;5066553;28;20502;-78
2022/06/07 01:19:51;;;;;;;15.10;6.65;;;;;;;;;;5066325;28;20025;-78
2022/06/07 01:22:17;;;;;;;14.73;7.63;;;;;;;;;;5067219;28;20035;-78
2022/06/07 01:24:43;;;;;;;12.77;7.30;;;;;;;;;;5048212;28;20059;-78
2022/06/07 01:27:10;;;;;;;20.65;7.25;;;;;;;;;;5050360;28;20111;-78
2022/06/07 01:29:36;;;;;;;14.15;7.80;;;;;;;;;;5050224;28;20107;-77
2022/06/07 01:32:03;;;;;;;20.83;9.75;;;;;;;;;;5050158;28;20063;-77
2022/06/07 01:34:29;;;;;;;29.55;11.55;;;;;;;;;;5049786;28;20029;-78
2022/06/07 01:36:56;;;;;;;24.27;11.68;;;;;;;;;;5049818;28;20404;-77
2022/06/07 01:42:08;;;;;;;34.25;14.85;;;;;;;;;;5052449;28;20094;-77
2022/06/07 01:44:39;;;;;;;32.83;15.95;;;;;;;;;;5058758;28;20025;-78
2022/06/07 01:47:07;;;;;;;39.15;19.88;;;;;;;;;;5049762;28;20025;-77
2022/06/07 01:49:33;;;;;;;45.60;21.60;;;;;;;;;;5049756;28;20029;-78
2022/06/07 01:52:00;;;;;;;49.63;22.70;;;;;;;;;;5064959;28;20028;-78
2022/06/07 01:54:26;;;;;;;51.55;24.23;;;;;;;;;;5069638;28;20040;-77
2022/06/07 01:56:52;;;;;;;56.13;24.90;;;;;;;;;;5069199;28;20029;-78
2022/06/07 01:59:19;;;;;;;49.38;24.10;;;;;;;;;;5068190;28;20035;-77
2022/06/07 02:01:48;;;;;;;55.17;24.08;;;;;;;;;;5069463;28;20016;-77
2022/06/07 02:04:15;;;;;;;50.88;25.52;;;;;;;;;;5069477;28;20048;-77
2022/06/07 02:06:41;;;;;;;49.40;24.17;;;;;;;;;;5069443;28;20023;-78
2022/06/07 02:09:08;;;;;;;47.22;23.55;;;;;;;;;;5069411;28;20032;-77
2022/06/07 02:11:36;;;;;;;42.63;20.73;;;;;;;;;;5067602;28;20024;-77
2022/06/07 02:14:02;;;;;;;42.35;21.67;;;;;;;;;;5068976;28;20049;-77
2022/06/07 02:16:28;;;;;;;36.88;20.88;;;;;;;;;;5068960;28;20033;-77
2022/06/07 02:18:54;;;;;;;32.75;18.13;;;;;;;;;;5068666;28;20032;-77
2022/06/07 02:21:23;;;;;;;24.35;13.20;;;;;;;;;;5056150;28;20036;-78
2022/06/07 02:23:49;;;;;;;20.90;11.95;;;;;;;;;;5049062;28;20568;-77
2022/06/07 02:26:23;;;;;;;24.75;11.70;;;;;;;;;;5049105;28;20021;-77
2022/06/07 02:28:53;;;;;;;23.92;10.93;;;;;;;;;;5049159;28;20108;-78
2022/06/07 02:31:19;;;;;;;17.75;8.50;;;;;;;;;;5047319;28;20036;-78
2022/06/07 02:33:46;;;;;;;14.15;8.43;;;;;;;;;;5055270;28;20419;-78
2022/06/07 02:36:12;;;;;;;19.05;8.25;;;;;;;;;;5049483;28;20818;-77
2022/06/07 02:38:39;;;;;;;17.83;8.93;;;;;;;;;;5044065;28;20052;-77
2022/06/07 02:41:08;;;;;;;18.77;6.65;;;;;;;;;;5042888;28;20086;-78
2022/06/07 02:43:34;;;;;;;12.38;5.78;;;;;;;;;;5061953;28;20029;-77
2022/06/07 02:46:00;;;;;;;11.95;5.95;;;;;;;;;;5063597;28;20653;-77
2022/06/07 02:48:26;;;;;;;10.50;6.07;;;;;;;;;;5060883;28;20033;-77
2022/06/07 02:50:52;;;;;;;13.68;6.68;;;;;;;;;;5063846;28;20025;-78
2022/06/07 02:53:19;;;;;;;14.80;5.93;;;;;;;;;;5062088;28;20033;-77
2022/06/07 02:55:45;;;;;;;11.45;6.15;;;;;;;;;;5064005;28;20028;-78
2022/06/07 02:58:11;;;;;;;11.98;6.13;;;;;;;;;;5063079;28;20037;-78
2022/06/07 03:00:37;;;;;;;11.27;5.68;;;;;;;;;;5063571;28;20020;-77
2022/06/07 03:03:04;;;;;;;14.15;6.28;;;;;;;;;;5062558;28;20028;-78
2022/06/07 03:05:30;;;;;;;12.32;6.32;;;;;;;;;;5064043;28;20513;-77
2022/06/07 03:07:56;;;;;;;15.57;6.57;;;;;;;;;;5063639;28;20032;-77
2022/06/07 03:10:22;;;;;;;12.25;5.43;;;;;;;;;;5049944;28;20028;-77
2022/06/07 03:12:48;;;;;;;12.55;5.47;;;;;;;;;;5043695;28;20055;-77
2022/06/07 03:15:15;;;;;;;13.45;6.45;;;;;;;;;;5041894;28;20048;-77
2022/06/07 03:17:41;;;;;;;11.88;6.20;;;;;;;;;;5049909;28;20032;-77
2022/06/07 03:20:09;;;;;;;13.80;6.55;;;;;;;;;;5043637;28;20036;-78
2022/06/07 03:22:35;;;;;;;13.93;6.13;;;;;;;;;;5043267;28;20055;-77
2022/06/07 03:25:05;;;;;;;15.60;7.47;;;;;;;;;;5041154;28;20028;-78
2022/06/07 03:27:32;;;;;;;13.48;6.95;;;;;;;;;;5039622;28;20029;-78
2022/06/07 03:29:58;;;;;;;15.38;7.65;;;;;;;;;;5050436;28;20028;-78
2022/06/07 03:32:25;;;;;;;13.90;7.00;;;;;;;;;;5042151;28;20055;-78
2022/06/07 03:34:51;;;;;;;17.73;7.45;;;;;;;;;;5040238;28;20025;-78
2022/06/07 03:37:17;;;;;;;14.25;7.88;;;;;;;;;;5040706;28;20033;-78
2022/06/07 03:39:44;;;;;;;13.07;6.95;;;;;;;;;;5047304;28;20653;-78
2022/06/07 03:42:10;;;;;;;14.40;7.38;;;;;;;;;;5057212;28;20028;-78
2022/06/07 03:44:36;;;;;;;14.07;6.93;;;;;;;;;;5060107;28;20092;-78
2022/06/07 03:47:02;;;;;;;15.18;8.52;;;;;;;;;;5060124;28;20024;-78
2022/06/07 03:49:28;;;;;;;17.50;8.55;;;;;;;;;;5058682;28;20031;-78
2022/06/07 03:51:54;;;;;;;17.10;9.27;;;;;;;;;;5060638;28;20099;-78
2022/06/07 03:54:20;;;;;;;18.38;9.07;;;;;;;;;;5060138;28;20041;-78
2022/06/07 03:56:47;;;;;;;21.35;9.45;;;;;;;;;;5059577;28;20035;-78
2022/06/07 03:59:13;;;;;;;16.98;9.18;;;;;;;;;;5058939;28;20032;-78
2022/06/07 04:01:39;;;;;;;16.42;8.45;;;;;;;;;;5060004;28;20025;-79
2022/06/07 04:04:07;;;;;;;14.55;8.20;;;;;;;;;;5059860;28;20024;-78
2022/06/07 04:06:35;;;;;;;11.00;6.57;;;;;;;;;;5060146;28;20082;-78
2022/06/07 04:09:02;;;;;;;17.83;7.40;;;;;;;;;;5039844;28;20104;-78
2022/06/07 04:11:29;;;;;;;13.98;7.30;;;;;;;;;;5040282;28;20060;-78
2022/06/07 04:13:56;;;;;;;12.82;6.57;;;;;;;;;;5038246;28;20121;-78
2022/06/07 04:16:24;;;;;;;15.82;6.43;;;;;;;;;;5039896;28;20017;-78
2022/06/07 04:18:50;;;;;;;9.15;6.13;;;;;;;;;;5039149;28;20100;-78
2022/06/07 04:21:16;;;;;;;13.40;6.57;;;;;;;;;;5059274;28;20789;-78
2022/06/07 04:23:43;;;;;;;12.27;6.68;;;;;;;;;;5058301;28;20025;-79
2022/06/07 04:26:11;;;;;;;10.38;7.15;;;;;;;;;;5059805;28;20028;-78
2022/06/07 04:28:37;;;;;;;14.73;7.40;;;;;;;;;;5059728;28;20048;-78
2022/06/07 04:31:09;;;;;;;10.07;6.25;;;;;;;;;;5059538;28;20837;-78
2022/06/07 04:33:35;;;;;;;15.25;7.20;;;;;;;;;;5053393;28;20032;-77
2022/06/07 04:36:02;;;;;;;11.18;6.65;;;;;;;;;;5051309;28;20536;-77
2022/06/07 04:38:29;;;;;;;15.32;6.95;;;;;;;;;;5051708;28;20044;-78
2022/06/07 04:40:56;;;;;;;19.08;6.97;;;;;;;;;;5059687;28;20055;-78
2022/06/07 04:43:22;;;;;;;15.27;7.07;;;;;;;;;;5058118;28;20506;-77
2022/06/07 04:45:48;;;;;;;17.40;7.40;;;;;;;;;;5059222;28;20094;-77
2022/06/07 04:48:16;;;;;;;15.18;7.85;;;;;;;;;;5059254;28;20608;-78
2022/06/07 04:50:42;;;;;;;20.15;7.65;;;;;;;;;;5057909;28;20075;-77
2022/06/07 04:53:08;;;;;;;12.65;6.97;;;;;;;;;;5059403;28;20031;-78
2022/06/07 04:55:34;;;;;;;16.17;8.15;;;;;;;;;;5059138;28;20054;-78
2022/06/07 04:58:00;;;;;;;14.75;7.80;;;;;;;;;;5063156;28;20059;-77
2022/06/07 05:00:26;;;;;;;15.30;8.73;;;;;;;;;;5061946;28;20023;-78
2022/06/07 05:02:53;;;;;;;15.25;8.25;;;;;;;;;;5057617;28;20031;-78
2022/06/07 05:05:21;;;;;;;17.02;7.78;;;;;;;;;;5058414;28;20036;-78
2022/06/07 05:07:47;;;;;;;12.45;7.40;;;;;;;;;;5063537;28;20028;-78
2022/06/07 05:10:16;;;;;;;13.45;7.80;;;;;;;;;;5063660;28;20188;-78
2022/06/07 05:12:42;;;;;;;12.43;7.70;;;;;;;;;;5060577;28;20771;-78
2022/06/07 05:15:09;;;;;;;12.48;7.20;;;;;;;;;;5063428;28;20824;-79
2022/06/07 05:17:35;;;;;;;13.52;6.93;;;;;;;;;;5062803;28;20578;-78
2022/06/07 05:20:01;;;;;;;12.55;7.15;;;;;;;;;;5062698;28;20416;-78
2022/06/07 05:22:27;;;;;;;15.30;7.22;;;;;;;;;;5055017;28;20802;-78
2022/06/07 05:24:53;;;;;;;11.52;6.35;;;;;;;;;;5049527;28;20039;-78
2022/06/07 05:27:21;;;;;;;14.27;6.05;;;;;;;;;;5043201;28;20028;-78
2022/06/07 05:29:49;;;;;;;16.60;8.68;;;;;;;;;;5043001;28;20028;-77
2022/06/07 05:32:16;;;;;;;17.60;11.27;;;;;;;;;;5046338;28;20036;-77
2022/06/07 05:34:42;;;;;;;26.92;15.30;;;;;;;;;;5057271;28;20036;-78
2022/06/07 05:37:13;;;;;;;21.92;12.15;;;;;;;;;;5046761;28;20025;-78
2022/06/07 05:39:39;;;;;;;47.15;14.32;;;;;;;;;;5044937;28;20032;-76
2022/06/07 05:42:06;;;;;;;21.38;10.65;;;;;;;;;;5049041;28;20548;-79
2022/06/07 05:44:33;;;;;;;16.77;9.73;;;;;;;;;;5064694;28;20035;-75
2022/06/07 05:47:00;;;;;;;18.98;11.60;;;;;;;;;;5064283;28;20044;-75
2022/06/07 05:49:26;;;;;;;22.48;10.57;;;;;;;;;;5049781;28;20102;-77
2022/06/07 05:51:52;;;;;;;25.30;9.98;;;;;;;;;;5044162;28;20021;-78
2022/06/07 05:54:18;;;;;;;13.77;9.05;;;;;;;;;;5047355;28;20067;-78
2022/06/07 05:56:45;;;;;;;17.25;9.35;;;;;;;;;;5052440;28;20104;-79
2022/06/07 05:59:11;;;;;;;23.80;9.18;;;;;;;;;;5044168;28;20035;-78
2022/06/07 06:01:37;;;;;;;12.32;6.07;;;;;;;;;;5043390;28;20028;-77
2022/06/07 06:04:06;;;;;;;18.40;9.13;;;;;;;;;;5044155;28;20625;-78
2022/06/07 06:06:33;;;;;;;126.10;79.47;;;;;;;;;;5044525;28;20025;-78
2022/06/07 06:11:44;;;;;;;17.00;9.73;;;;;;;;;;5044070;28;20492;-77
2022/06/07 06:14:11;;;;;;;16.85;9.90;;;;;;;;;;5047480;28;20045;-80
2022/06/07 06:16:37;;;;;;;15.02;8.95;;;;;;;;;;5043788;28;20017;-80
2022/06/07 06:19:03;;;;;;;19.45;9.95;;;;;;;;;;5042932;28;20574;-83
2022/06/07 06:21:32;;;;;;;18.77;9.77;;;;;;;;;;5044594;28;20021;-79
2022/06/07 06:23:59;;;;;;;23.65;9.85;;;;;;;;;;5058945;28;20028;-80
2022/06/07 06:26:26;;;;;;;13.00;7.68;;;;;;;;;;5050612;28;20035;-80
2022/06/07 06:28:53;;;;;;;11.95;7.18;;;;;;;;;;5048664;28;20017;-80
2022/06/07 06:31:19;;;;;;;15.73;7.10;;;;;;;;;;5045427;28;20028;-77
2022/06/07 06:33:47;;;;;;;14.55;6.53;;;;;;;;;;5058669;28;20032;-81
2022/06/07 06:36:14;;;;;;;13.85;7.45;;;;;;;;;;5063988;28;20052;-81
2022/06/07 06:38:40;;;;;;;10.82;6.63;;;;;;;;;;5058116;28;20041;-83
2022/06/07 06:41:08;;;;;;;14.23;6.78;;;;;;;;;;5058136;28;20036;-81
2022/06/07 06:43:34;;;;;;;14.25;7.57;;;;;;;;;;5058457;28;20720;-84
2022/06/07 06:46:04;;;;;;;16.73;6.22;;;;;;;;;;5052481;28;20747;-79
2022/06/07 06:48:30;;;;;;;12.63;6.25;;;;;;;;;;5056758;28;20032;-77
2022/06/07 06:51:00;;;;;;;12.35;6.38;;;;;;;;;;5043165;28;20021;-91
2022/06/07 06:53:27;;;;;;;9.43;5.30;;;;;;;;;;5050588;28;20056;-86
2022/06/07 06:55:55;;;;;;;10.25;5.82;;;;;;;;;;5044770;28;20017;-81
2022/06/07 06:58:21;;;;;;;9.75;5.13;;;;;;;;;;5046705;28;20127;-77
2022/06/07 07:00:49;;;;;;;10.23;5.40;;;;;;;;;;5042720;28;20017;-78
2022/06/07 07:03:15;;;;;;;13.75;5.53;;;;;;;;;;5042098;28;20480;-84
2022/06/07 07:05:41;;;;;;;12.05;4.85;;;;;;;;;;5049381;28;20032;-77
2022/06/07 07:08:07;;;;;;;8.32;5.25;;;;;;;;;;5061804;28;20090;-78
2022/06/07 07:10:33;;;;;;;8.50;5.00;;;;;;;;;;5050719;28;20017;-77
2022/06/07 07:13:00;;;;;;;6.95;4.45;;;;;;;;;;5055616;28;20067;-79
2022/06/07 07:15:26;;;;;;;12.10;4.82;;;;;;;;;;5057955;28;20032;-77
2022/06/07 07:17:52;;;;;;;12.70;4.72;;;;;;;;;;5047406;28;20051;-90
2022/06/07 07:20:18;;;;;;;10.73;5.40;;;;;;;;;;5047839;28;20052;-79
2022/06/07 07:22:44;;;;;;;7.65;4.40;;;;;;;;;;5050011;28;20043;-82
2022/06/07 07:25:10;;;;;;;9.20;5.10;;;;;;;;;;5046011;28;20024;-77
2022/06/07 07:27:37;;;;;;;13.90;5.13;;;;;;;;;;5049313;28;20822;-77
2022/06/07 07:30:03;;;;;;;8.20;4.68;;;;;;;;;;5050882;28;20033;-84
2022/06/07 07:32:29;;;;;;;8.45;4.38;;;;;;;;;;5055555;28;20029;-76
2022/06/07 07:34:55;;;;;;;11.18;6.80;;;;;;;;;;5060326;28;20070;-80
2022/06/07 07:37:23;;;;;;;12.27;9.75;;;;;;;;;;5061447;28;20460;-85
2022/06/07 07:39:49;;;;;;;9.40;6.43;;;;;;;;;;5046402;28;20025;-78
2022/06/07 07:42:15;;;;;;;14.70;8.60;;;;;;;;;;5041474;28;20033;-77
2022/06/07 07:44:42;;;;;;;13.45;11.50;;;;;;;;;;5053140;28;20017;-80
2022/06/07 07:47:08;;;;;;;13.20;6.97;;;;;;;;;;5045185;28;20580;-77
2022/06/07 07:49:34;;;;;;;9.43;4.00;;;;;;;;;;5045998;28;20099;-78
2022/06/07 07:52:00;;;;;;;6.60;3.30;;;;;;;;;;5049978;28;20028;-83
2022/06/07 07:54:28;;;;;;;6.60;3.70;;;;;;;;;;5044143;28;20027;-83
2022/06/07 07:56:55;;;;;;;7.18;4.15;;;;;;;;;;5045260;28;20036;-78
2022/06/07 07:59:22;;;;;;;10.02;5.05;;;;;;;;;;5047742;28;20127;-78
2022/06/07 08:01:49;;;;;;;15.15;11.40;;;;;;;;;;5050531;28;20021;-81
2022/06/07 08:04:15;;;;;;;9.43;7.38;;;;;;;;;;5042651;28;20203;-79
2022/06/07 08:06:41;;;;;;;8.85;3.95;;;;;;;;;;5047408;28;20095;-82
2022/06/07 08:09:09;;;;;;;11.23;6.97;;;;;;;;;;5048998;28;20025;-77
2022/06/07 08:11:37;;;;;;;14.38;12.98;;;;;;;;;;5051508;28;20060;-78
2022/06/07 08:14:05;;;;;;;8.70;6.28;;;;;;;;;;5047862;28;20056;-78
2022/06/07 08:16:31;;;;;;;8.68;4.60;;;;;;;;;;5039628;28;20035;-79
2022/06/07 08:18:57;;;;;;;8.20;4.22;;;;;;;;;;5048060;28;20029;-84
2022/06/07 08:21:26;;;;;;;4.80;3.40;;;;;;;;;;5043002;28;20016;-83
2022/06/07 08:23:54;;;;;;;8.15;3.95;;;;;;;;;;5045927;28;20033;-84
2022/06/07 08:26:21;;;;;;;7.63;3.90;;;;;;;;;;5043968;28;20044;-85
2022/06/07 08:28:47;;;;;;;8.43;4.20;;;;;;;;;;5041892;28;20032;-83
2022/06/07 08:31:15;;;;;;;5.75;4.13;;;;;;;;;;5039202;28;20457;-82
2022/06/07 08:39:11;;;;;;;5.25;3.60;;;;;;;;;;5044962;28;20056;-86
2022/06/07 08:41:51;;;;;;;7.35;4.18;;;;;;;;;;5053099;28;20021;-84
2022/06/07 08:44:36;;;;;;;7.90;4.13;;;;;;;;;;5052530;28;20036;-85
2022/06/07 08:47:07;;;;;;;6.47;3.10;;;;;;;;;;5059658;28;20035;-84
2022/06/07 08:49:33;;;;;;;;;;;;;;;;;;5051546;28;20024;-84
2022/06/07 08:52:08;;;;;;;7.07;3.17;;;;;;;;;;5051526;28;19908;-86
2022/06/07 08:54:37;;;;;;;13.25;8.00;;;;;;;;;;5060095;28;20032;-85
2022/06/07 08:57:24;;;;;;;11.40;9.45;;;;;;;;;;5058554;28;20132;-79
2022/06/07 08:59:54;;;;;;;5.35;3.97;;;;;;;;;;5061199;28;20028;-79
2022/06/07 09:02:33;;;;;;;5.07;3.08;;;;;;;;;;5061677;28;20024;-79
2022/06/07 09:04:59;;;;;;;14.18;9.85;;;;;;;;;;5042463;28;20112;-79
2022/06/07 09:07:26;;;;;;;18.75;14.95;;;;;;;;;;5041561;28;20025;-79
2022/06/07 09:12:41;;;;;;;16.75;10.30;;;;;;;;;;5041592;28;20032;-79
2022/06/07 09:15:16;;;;;;;6.25;3.80;;;;;;;;;;5041487;28;20053;-78
2022/06/07 09:17:53;;;;;;;6.00;3.50;;;;;;;;;;5047657;28;20040;-79
2022/06/07 09:20:23;;;;;;;7.25;3.83;;;;;;;;;;5061340;28;20025;-76
2022/06/07 09:23:04;;;;;;;7.97;3.27;;;;;;;;;;5061173;28;20377;-77
2022/06/07 09:25:35;;;;;;;6.38;3.45;;;;;;;;;;5061442;28;20037;-76
2022/06/07 09:28:03;;;;;;;25.10;14.45;;;;;;;;;;5061430;28;20583;-77
2022/06/07 09:30:41;;;;;;;69.70;35.72;;;;;;;;;;5061045;28;20021;-80
2022/06/07 09:33:10;;;;;;;30.17;14.85;;;;;;;;;;5054227;28;20628;-77
2022/06/07 09:35:40;;;;;;;7.13;3.88;;;;;;;;;;5061170;28;20590;-77
2022/06/07 09:38:10;;;;;;;5.17;3.27;;;;;;;;;;5060973;28;20514;-77
2022/06/07 09:40:38;;;;;;;10.70;3.73;;;;;;;;;;5059772;28;20029;-79
2022/06/07 09:43:16;;;;;;;8.18;5.22;;;;;;;;;;5063443;28;20039;-79
2022/06/07 09:45:45;;;;;;;27.30;15.15;;;;;;;;;;5064739;28;20021;-81
2022/06/07 09:48:32;;;;;;;10.25;6.80;;;;;;;;;;5064666;28;20028;-80
2022/06/07 09:51:19;;;;;;;18.85;8.73;;;;;;;;;;5054104;28;20024;-81
2022/06/07 09:53:57;;;;;;;19.08;11.07;;;;;;;;;;5064296;28;20017;-80
2022/06/07 09:56:26;;;;;;;21.48;12.13;;;;;;;;;;5059723;28;20101;-84
2022/06/07 09:59:12;;;;;;;15.00;8.05;;;;;;;;;;5045065;28;20056;-81
2022/06/07 10:01:55;;;;;;;15.23;6.82;;;;;;;;;;5044953;28;20033;-86
2022/06/07 10:04:25;;;;;;;24.35;13.20;;;;;;;;;;5041529;28;20032;-78
2022/06/07 10:06:54;;;;;;;16.58;10.25;;;;;;;;;;5047189;28;20485;-79
2022/06/07 10:09:29;;;;;;;13.80;7.35;;;;;;;;;;5052104;28;20040;-79
2022/06/07 10:12:16;;;;;;;10.80;6.82;;;;;;;;;;5060854;28;20259;-80
2022/06/07 10:15:20;;;;;;;12.57;5.35;;;;;;;;;;5042342;28;20053;-78
2022/06/07 10:18:05;;;;;;;9.52;5.40;;;;;;;;;;5003419;28;20950;-79
2022/06/07 10:20:37;;;;;;;6.93;4.90;;;;;;;;;;5020586;28;20128;-80
2022/06/07 10:23:23;;;;;;;5.65;3.70;;;;;;;;;;5028607;28;20455;-80
2022/06/07 10:25:55;;;;;;;8.80;4.78;;;;;;;;;;5042537;28;20033;-80
2022/06/07 10:28:29;;;;;;;8.38;4.30;;;;;;;;;;5043505;28;20041;-78
2022/06/07 10:31:18;;;;;;;7.60;4.45;;;;;;;;;;5044714;28;20071;-82
2022/06/07 10:33:44;;;;;;;13.88;6.80;;;;;;;;;;5047716;28;20517;-78
2022/06/07 10:36:13;;;;;;;15.73;7.13;;;;;;;;;;5056979;28;20025;-80
2022/06/07 10:38:52;;;;;;;12.68;6.38;;;;;;;;;;5042585;28;20041;-78
2022/06/07 10:41:36;;;;;;;12.73;5.80;;;;;;;;;;5051346;28;20033;-80
2022/06/07 10:44:03;;;;;;;16.83;8.30;;;;;;;;;;5041867;28;20547;-79
2022/06/07 10:46:29;;;;;;;10.23;5.53;;;;;;;;;;5055387;28;20043;-78
2022/06/07 10:49:19;;;;;;;8.43;4.80;;;;;;;;;;5052327;28;20032;-79
2022/06/07 10:54:41;;;;;;;11.93;5.50;;;;;;;;;;5042479;28;20051;-77
2022/06/07 10:57:19;;;;;;;11.73;4.50;;;;;;;;;;5054954;28;20041;-78
2022/06/07 10:59:46;;;;;;;7.05;4.53;;;;;;;;;;5058056;28;20025;-80
2022/06/07 11:02:27;;;;;;;11.05;5.32;;;;;;;;;;5043543;28;20032;-80
2022/06/07 11:10:42;;;;;;;6.50;3.72;;;;;;;;;;5042792;28;20107;-81
2022/06/07 11:13:27;;;;;;;6.38;3.45;;;;;;;;;;5051725;28;20024;-80
2022/06/07 11:15:56;;;;;;;8.48;4.25;;;;;;;;;;5047342;28;20044;-81
2022/06/07 11:18:26;;;;;;;8.93;4.18;;;;;;;;;;5045639;28;20033;-82
2022/06/07 11:21:02;;;;;;;7.85;3.67;;;;;;;;;;5049865;28;20633;-80
2022/06/07 11:23:57;;;;;;;5.47;3.15;;;;;;;;;;5048852;28;20486;-80
2022/06/07 11:26:24;;;;;;;8.25;3.85;;;;;;;;;;5026736;28;20627;-81
2022/06/07 11:28:53;;;;;;;4.88;3.20;;;;;;;;;;5052674;28;20440;-80
2022/06/07 11:31:28;;;;;;;5.90;3.25;;;;;;;;;;5051742;28;20025;-80
2022/06/07 11:33:54;;;;;;;5.28;3.13;;;;;;;;;;5043373;28;20420;-79
2022/06/07 11:36:20;;;;;;;4.90;3.10;;;;;;;;;;5041082;28;20021;-80
2022/06/07 11:38:56;;;;;;;7.40;3.22;;;;;;;;;;5050516;28;20243;-80
2022/06/07 11:41:37;;;;;;;8.00;3.20;;;;;;;;;;5054523;28;20028;-80
2022/06/07 11:44:12;;;;;;;4.38;3.05;;;;;;;;;;5057375;28;20108;-79
2022/06/07 11:46:44;;;;;;;5.95;3.08;;;;;;;;;;5043488;28;20024;-79
2022/06/07 11:49:26;;;;;;;6.60;3.63;;;;;;;;;;5044065;28;20052;-80
2022/06/07 11:51:52;;;;;;;5.53;3.17;;;;;;;;;;5057507;28;20032;-82
2022/06/07 11:54:24;;;;;;;8.60;3.58;;;;;;;;;;5056497;28;20020;-79
2022/06/07 11:56:51;;;;;;;6.80;3.45;;;;;;;;;;5053416;28;20028;-79
2022/06/07 11:59:17;;;;;;;5.90;4.13;;;;;;;;;;5057268;28;20035;-80
2022/06/07 12:01:46;;;;;;;6.90;3.42;;;;;;;;;;5046308;28;20021;-77
2022/06/07 12:04:28;;;;;;;6.13;3.22;;;;;;;;;;5056106;28;20036;-80
2022/06/07 12:06:54;;;;;;;6.22;3.35;;;;;;;;;;5051728;28;20982;-81
2022/06/07 12:09:21;;;;;;;5.10;2.80;;;;;;;;;;5052223;28;20041;-79
2022/06/07 12:11:47;;;;;;;8.98;3.70;;;;;;;;;;5043240;28;20033;-79
2022/06/07 12:14:32;;;;;;;8.98;3.50;;;;;;;;;;5049747;28;20059;-80
2022/06/07 12:17:00;;;;;;;5.32;3.10;;;;;;;;;;5047878;28;20029;-80
2022/06/07 12:19:26;;;;;;;4.63;2.83;;;;;;;;;;5057272;28;20036;-79
2022/06/07 12:21:58;;;;;;;3.42;2.90;;;;;;;;;;5044595;28;20027;-79
2022/06/07 12:24:24;;;;;;;5.05;3.35;;;;;;;;;;5048037;28;20051;-78
2022/06/07 12:26:51;;;;;;;3.83;3.17;;;;;;;;;;5044388;28;20135;-78
2022/06/07 12:29:43;;;;;;;5.45;3.40;;;;;;;;;;5045670;28;20124;-79
2022/06/07 12:32:17;;;;;;;6.45;3.22;;;;;;;;;;5042637;28;20036;-81
2022/06/07 12:34:43;;;;;;;10.27;3.72;;;;;;;;;;5046989;28;20039;-79
2022/06/07 12:37:09;;;;;;;12.90;4.45;;;;;;;;;;5039187;28;20133;-77
2022/06/07 12:39:51;;;;;;;4.68;3.17;;;;;;;;;;5041568;28;20756;-80
2022/06/07 12:42:18;;;;;;;4.47;3.03;;;;;;;;;;5047259;28;20039;-79
2022/06/07 12:44:56;;;;;;;3.60;2.75;;;;;;;;;;5048191;28;20035;-79
2022/06/07 12:47:24;;;;;;;4.85;2.88;;;;;;;;;;5047750;28;20029;-79
2022/06/07 12:49:50;;;;;;;7.72;3.17;;;;;;;;;;5051709;28;20705;-80
2022/06/07 12:52:21;;;;;;;9.70;3.67;;;;;;;;;;5047638;28;20029;-78
2022/06/07 12:54:49;;;;;;;5.10;3.00;;;;;;;;;;5049358;28;20063;-80
2022/06/07 12:57:18;;;;;;;4.63;3.42;;;;;;;;;;5045652;28;20653;-79
2022/06/07 13:00:00;;;;;;;4.93;2.72;;;;;;;;;;5049476;28;20036;-79
2022/06/07 13:02:38;;;;;;;5.40;3.00;;;;;;;;;;5050680;28;20052;-79
2022/06/07 13:05:10;;;;;;;12.23;3.53;;;;;;;;;;5045566;28;20021;-78
2022/06/07 13:07:45;;;;;;;6.03;3.13;;;;;;;;;;5044935;28;20741;-79
2022/06/07 13:10:21;;;;;;;5.75;3.15;;;;;;;;;;5055926;28;20633;-79
2022/06/07 13:12:57;;;;;;;3.58;2.70;;;;;;;;;;5051099;28;20040;-78
2022/06/07 13:15:32;;;;;;;4.00;2.72;;;;;;;;;;5059053;28;20083;-79
2022/06/07 13:18:04;;;;;;;6.95;3.25;;;;;;;;;;5043002;28;20116;-77
2022/06/07 13:20:30;;;;;;;5.30;3.20;;;;;;;;;;5058254;28;20622;-78
2022/06/07 13:22:57;;;;;;;6.55;2.92;;;;;;;;;;5042521;28;20033;-78
2022/06/07 13:25:28;;;;;;;7.07;2.65;;;;;;;;;;5041797;28;20803;-78
2022/06/07 13:27:55;;;;;;;;;;;;;;;;;;5048179;28;20515;-77
2022/06/07 13:30:21;;;;;;;5.95;3.00;;;;;;;;;;5062056;28;19991;-77
2022/06/07 13:32:59;;;;;;;4.30;2.60;;;;;;;;;;5048841;28;20027;-77
2022/06/07 13:35:27;;;;;;;3.17;2.65;;;;;;;;;;5049315;28;20024;-77
2022/06/07 13:38:05;;;;;;;5.60;3.28;;;;;;;;;;5046523;28;20128;-78
2022/06/07 13:40:34;;;;;;;8.27;3.42;;;;;;;;;;5042041;28;20512;-78
2022/06/07 13:43:15;;;;;;;9.43;3.47;;;;;;;;;;5042774;28;20082;-78
2022/06/07 13:45:46;;;;;;;4.53;3.22;;;;;;;;;;5042160;28;20063;-77
2022/06/07 13:48:20;;;;;;;4.82;2.85;;;;;;;;;;5040214;28;20025;-78
2022/06/07 13:53:48;;;;;;;4.30;3.00;;;;;;;;;;5042395;28;20040;-77
2022/06/07 13:56:15;;;;;;;6.15;2.80;;;;;;;;;;5052375;28;20543;-78
2022/06/07 13:58:43;;;;;;;5.88;3.03;;;;;;;;;;5061198;28;20508;-78
2022/06/07 14:01:15;;;;;;;4.05;2.50;;;;;;;;;;5061971;28;20021;-78
2022/06/07 14:03:45;;;;;;;3.92;2.60;;;;;;;;;;5059894;28;20076;-78
2022/06/07 14:06:22;;;;;;;5.90;2.88;;;;;;;;;;5041953;28;20033;-79
2022/06/07 14:08:48;;;;;;;5.53;2.83;;;;;;;;;;5041766;28;20029;-79
2022/06/07 14:11:15;;;;;;;4.10;2.70;;;;;;;;;;5037948;28;20524;-79
2022/06/07 14:13:41;;;;;;;6.60;2.92;;;;;;;;;;5041802;28;20251;-78
2022/06/07 14:16:10;;;;;;;4.97;2.92;;;;;;;;;;5055428;28;20029;-79
2022/06/07 14:18:36;;;;;;;5.18;2.90;;;;;;;;;;5060430;28;20116;-79
2022/06/07 14:21:02;;;;;;;2.97;2.45;;;;;;;;;;5059639;28;20123;-80
2022/06/07 14:23:28;;;;;;;4.10;2.50;;;;;;;;;;5060989;28;20033;-79
2022/06/07 14:25:54;;;;;;;3.78;2.78;;;;;;;;;;5059891;28;20025;-78
2022/06/07 14:28:22;;;;;;;3.65;2.63;;;;;;;;;;5060831;28;20039;-79
2022/06/07 14:30:49;;;;;;;4.32;2.78;;;;;;;;;;5061092;28;20051;-79
2022/06/07 14:33:16;;;;;;;6.10;3.10;;;;;;;;;;5047696;28;20024;-80
2022/06/07 14:35:43;;;;;;;3.88;2.53;;;;;;;;;;5053260;28;20021;-80
2022/06/07 14:38:12;;;;;;;8.20;3.28;;;;;;;;;;5041306;28;20041;-78
2022/06/07 14:40:41;;;;;;;5.05;3.45;;;;;;;;;;5041407;28;20064;-79
2022/06/07 14:43:08;;;;;;;4.68;2.90;;;;;;;;;;5041670;28;20032;-78
2022/06/07 14:45:38;;;;;;;4.20;2.67;;;;;;;;;;5041574;28;20021;-79
2022/06/07 14:48:06;;;;;;;4.75;3.08;;;;;;;;;;5041265;28;20033;-79
2022/06/07 14:50:32;;;;;;;4.82;3.17;;;;;;;;;;5039084;28;20094;-79
2022/06/07 14:52:58;;;;;;;5.28;2.85;;;;;;;;;;5041601;28;20025;-79
2022/06/07 14:55:25;;;;;;;4.18;2.72;;;;;;;;;;5040931;28;20028;-79
2022/06/07 14:57:53;;;;;;;4.43;2.80;;;;;;;;;;5059079;28;20052;-79
2022/06/07 15:00:21;;;;;;;3.75;2.50;;;;;;;;;;5060096;28;20020;-79
2022/06/07 15:02:51;;;;;;;6.90;2.72;;;;;;;;;;5060672;28;20013;-80
2022/06/07 15:05:20;;;;;;;5.82;2.70;;;;;;;;;;5058266;28;20032;-79
2022/06/07 15:07:50;;;;;;;5.03;2.38;;;;;;;;;;5039641;28;20780;-79
2022/06/07 15:10:18;;;;;;;4.63;2.63;;;;;;;;;;5038161;28;20025;-79
2022/06/07 15:12:44;;;;;;;4.80;2.60;;;;;;;;;;5041050;28;20459;-79
2022/06/07 15:15:11;;;;;;;5.68;2.70;;;;;;;;;;5046721;28;20048;-79